Time;durP1;ratioP1;P1;durP2;ratioP2;P2;SDS_P1;SDS_P2;PMS_P1;PMS_P2;Temp;Humidity;BMP_temperature;BMP_pressure;BME280_temperature;BME280_humidity;BME280_pressure;Samples;Min_cycle;Max_cycle;Signal;HPM_P1;HPM_P2
2023/08/21 00:01:46;;;;;;;;;;;;;;;;;;6294613;28;19970;-63
2023/08/21 00:04:46;;;;;;;;;;;;;;;;;;6311638;28;19984;-63
2023/08/21 00:07:50;;;;;;;;;;;;;;;;;;6308167;28;19926;-64
2023/08/21 00:10:51;;;;;;;;;;;;;;;;;;6299325;28;19958;-63
2023/08/21 00:13:51;;;;;;;;;;;;;;;;;;6301415;28;19920;-63
2023/08/21 00:16:52;;;;;;;;;;;;;;;;;;6299154;28;19945;-63
2023/08/21 00:19:53;;;;;;;;;;;;;;;;;;6302667;28;19928;-63
2023/08/21 00:22:53;;;;;;;;;;;;;;;;;;6296513;28;20402;-63
2023/08/21 00:25:54;;;;;;;;;;;;;;;;;;6309068;28;19939;-62
2023/08/21 00:28:54;;;;;;;;;;;;;;;;;;6312720;28;19920;-62
2023/08/21 00:31:55;;;;;;;;;;;;;;;;;;6308087;28;19924;-63
2023/08/21 00:34:55;;;;;;;;;;;;;;;;;;6313687;28;20302;-62
2023/08/21 00:37:56;;;;;;;;;;;;;;;;;;6310334;28;20387;-62
2023/08/21 00:40:57;;;;;;;;;;;;;;;;;;6307568;28;19924;-61
2023/08/21 00:43:58;;;;;;;;;;;;;;;;;;6307845;28;20334;-61
2023/08/21 00:46:58;;;;;;;;;;;;;;;;;;6310353;28;19924;-63
2023/08/21 00:49:59;;;;;;;;;;;;;;;;;;6307128;28;19969;-63
2023/08/21 00:52:59;;;;;;;;;;;;;;;;;;6310035;28;19928;-63
2023/08/21 00:56:00;;;;;;;;;;;;;;;;;;6311429;28;19920;-63
2023/08/21 00:59:00;;;;;;;;;;;;;;;;;;6300204;28;19924;-62
2023/08/21 01:02:01;;;;;;;;;;;;;;;;;;6301416;28;19926;-63
2023/08/21 01:05:01;;;;;;;;;;;;;;;;;;6310294;28;19919;-63
2023/08/21 01:08:05;;;;;;;;;;;;;;;;;;6304247;28;19974;-63
2023/08/21 01:11:05;;;;;;;;;;;;;;;;;;6297685;28;19928;-63
2023/08/21 01:14:26;;;;;;;;;;;;;;;;;;6308318;28;20401;-63
2023/08/21 01:17:28;;;;;;;;;;;;;;;;;;6306316;28;20259;-63
2023/08/21 01:20:29;;;;;;;;;;;;;;;;;;6311236;28;19928;-63
2023/08/21 01:23:29;;;;;;;;;;;;;;;;;;6308153;28;19993;-61
2023/08/21 01:26:30;;;;;;;;;;;;;;;;;;6302544;28;20015;-63
2023/08/21 01:29:30;;;;;;;;;;;;;;;;;;6308983;28;19958;-63
2023/08/21 01:32:49;;;;;;;;;;;;;;;;;;6314267;28;20267;-62
2023/08/21 01:35:50;;;;;;;;;;;;;;;;;;6313264;28;19928;-63
2023/08/21 01:38:51;;;;;;;;;;;;;;;;;;6306196;28;19929;-63
2023/08/21 01:41:51;;;;;;;;;;;;;;;;;;6304751;28;19931;-63
2023/08/21 01:44:52;;;;;;;;;;;;;;;;;;6295372;28;19928;-63
2023/08/21 01:47:52;;;;;;;;;;;;;;;;;;6308776;28;20368;-63
2023/08/21 01:50:53;;;;;;;;;;;;;;;;;;6306887;28;19987;-63
2023/08/21 01:53:53;;;;;;;;;;;;;;;;;;6310527;28;20319;-63
2023/08/21 01:56:54;;;;;;;;;;;;;;;;;;6317519;28;20395;-62
2023/08/21 01:59:54;;;;;;;;;;;;;;;;;;6300426;28;19920;-63
2023/08/21 02:02:55;;;;;;;;;;;;;;;;;;6315883;28;19924;-63
2023/08/21 02:05:59;;;;;;;;;;;;;;;;;;6312424;28;19923;-62
2023/08/21 02:08:59;;;;;;;;;;;;;;;;;;6317587;28;19920;-62
2023/08/21 02:12:00;;;;;;;;;;;;;;;;;;6316814;28;20315;-62
2023/08/21 02:15:00;;;;;;;;;;;;;;;;;;6317002;28;19920;-63
2023/08/21 02:18:01;;;;;;;;;;;;;;;;;;6316348;28;19926;-62
2023/08/21 02:21:01;;;;;;;;;;;;;;;;;;6311886;28;19924;-63
2023/08/21 02:24:02;;;;;;;;;;;;;;;;;;6315420;28;19924;-63
2023/08/21 02:27:03;;;;;;;;;;;;;;;;;;6316570;28;19924;-63
2023/08/21 02:30:04;;;;;;;;;;;;;;;;;;6320560;28;20279;-63
2023/08/21 02:33:04;;;;;;;;;;;;;;;;;;6310853;28;19924;-63
2023/08/21 02:36:07;;;;;;;;;;;;;;;;;;6316207;28;19930;-63
2023/08/21 02:39:07;;;;;;;;;;;;;;;;;;6312737;28;20315;-63
2023/08/21 02:42:08;;;;;;;;;;;;;;;;;;6309845;28;19923;-64
2023/08/21 02:45:09;;;;;;;;;;;;;;;;;;6295017;28;19927;-62
2023/08/21 02:48:09;;;;;;;;;;;;;;;;;;6310031;28;20001;-64
2023/08/21 02:51:10;;;;;;;;;;;;;;;;;;6314947;28;19931;-64
2023/08/21 02:54:10;;;;;;;;;;;;;;;;;;6315017;28;19985;-63
2023/08/21 02:57:11;;;;;;;;;;;;;;;;;;6317795;28;19927;-63
2023/08/21 03:00:12;;;;;;;;;;;;;;;;;;6317125;28;19924;-63
2023/08/21 03:03:12;;;;;;;;;;;;;;;;;;6314411;28;19981;-63
2023/08/21 03:06:13;;;;;;;;;;;;;;;;;;6315648;28;19919;-63
2023/08/21 03:09:13;;;;;;;;;;;;;;;;;;6319801;28;19923;-64
2023/08/21 03:12:14;;;;;;;;;;;;;;;;;;6309891;28;19931;-63
2023/08/21 03:15:15;;;;;;;;;;;;;;;;;;6308925;28;19969;-63
2023/08/21 03:18:15;;;;;;;;;;;;;;;;;;6292700;28;19924;-63
2023/08/21 03:21:16;;;;;;;;;;;;;;;;;;6313496;28;20367;-63
2023/08/21 03:24:16;;;;;;;;;;;;;;;;;;6314400;28;19924;-64
2023/08/21 03:27:18;;;;;;;;;;;;;;;;;;6314822;28;19924;-64
2023/08/21 03:30:18;;;;;;;;;;;;;;;;;;6314174;28;19924;-63
2023/08/21 03:33:19;;;;;;;;;;;;;;;;;;6312986;28;19928;-63
2023/08/21 03:36:19;;;;;;;;;;;;;;;;;;6315280;28;21071;-63
2023/08/21 03:39:20;;;;;;;;;;;;;;;;;;6318474;28;19924;-63
2023/08/21 03:42:20;;;;;;;;;;;;;;;;;;6313797;28;19923;-64
2023/08/21 03:45:21;;;;;;;;;;;;;;;;;;6313135;28;19930;-62
2023/08/21 03:48:22;;;;;;;;;;;;;;;;;;6316064;28;19924;-63
2023/08/21 03:51:23;;;;;;;;;;;;;;;;;;6311080;28;19930;-63
2023/08/21 03:54:23;;;;;;;;;;;;;;;;;;6314201;28;19924;-63
2023/08/21 03:57:24;;;;;;;;;;;;;;;;;;6310256;28;19920;-63
2023/08/21 04:00:24;;;;;;;;;;;;;;;;;;6312885;28;19924;-62
2023/08/21 04:03:25;;;;;;;;;;;;;;;;;;6313529;28;20025;-63
2023/08/21 04:06:25;;;;;;;;;;;;;;;;;;6312663;28;19920;-63
2023/08/21 04:09:26;;;;;;;;;;;;;;;;;;6316871;28;19926;-63
2023/08/21 04:12:26;;;;;;;;;;;;;;;;;;6307346;28;20302;-62
2023/08/21 04:15:27;;;;;;;;;;;;;;;;;;6318262;28;20287;-62
2023/08/21 04:18:27;;;;;;;;;;;;;;;;;;6313900;28;19927;-61
2023/08/21 04:21:28;;;;;;;;;;;;;;;;;;6305359;28;19923;-62
2023/08/21 04:24:28;;;;;;;;;;;;;;;;;;6312706;28;19924;-62
2023/08/21 04:27:29;;;;;;;;;;;;;;;;;;6309024;28;20027;-61
2023/08/21 04:30:30;;;;;;;;;;;;;;;;;;6329394;28;20350;-62
2023/08/21 04:33:30;;;;;;;;;;;;;;;;;;6311948;28;20293;-61
2023/08/21 04:36:31;;;;;;;;;;;;;;;;;;6311973;28;20373;-62
2023/08/21 04:39:31;;;;;;;;;;;;;;;;;;6312565;28;19947;-62
2023/08/21 04:42:32;;;;;;;;;;;;;;;;;;6314436;28;19965;-62
2023/08/21 04:45:32;;;;;;;;;;;;;;;;;;6301029;28;19924;-62
2023/08/21 04:48:33;;;;;;;;;;;;;;;;;;6310238;28;19935;-61
2023/08/21 04:51:33;;;;;;;;;;;;;;;;;;6311515;28;19928;-63
2023/08/21 04:54:34;;;;;;;;;;;;;;;;;;6295575;28;20458;-62
2023/08/21 04:57:35;;;;;;;;;;;;;;;;;;6293744;28;19931;-62
2023/08/21 05:00:35;;;;;;;;;;;;;;;;;;6297883;28;19924;-62
2023/08/21 05:03:36;;;;;;;;;;;;;;;;;;6291267;28;19977;-62
2023/08/21 05:06:36;;;;;;;;;;;;;;;;;;6302380;28;19935;-62
2023/08/21 05:09:37;;;;;;;;;;;;;;;;;;6284346;28;20393;-62
2023/08/21 05:12:37;;;;;;;;;;;;;;;;;;6296316;28;19924;-63
2023/08/21 05:15:38;;;;;;;;;;;;;;;;;;6313219;28;19924;-62
2023/08/21 05:18:38;;;;;;;;;;;;;;;;;;6299216;28;19967;-62
2023/08/21 05:21:39;;;;;;;;;;;;;;;;;;6298758;28;19924;-62
2023/08/21 05:24:39;;;;;;;;;;;;;;;;;;6295275;28;19938;-62
2023/08/21 05:27:40;;;;;;;;;;;;;;;;;;6302172;28;19932;-62
2023/08/21 05:30:40;;;;;;;;;;;;;;;;;;6309042;28;19920;-62
2023/08/21 05:33:41;;;;;;;;;;;;;;;;;;6301362;28;19931;-62
2023/08/21 05:36:41;;;;;;;;;;;;;;;;;;6293632;28;19973;-62
2023/08/21 05:39:42;;;;;;;;;;;;;;;;;;6297410;28;19928;-62
2023/08/21 05:42:42;;;;;;;;;;;;;;;;;;6291919;28;19924;-63
2023/08/21 05:45:43;;;;;;;;;;;;;;;;;;6294081;28;19924;-62
2023/08/21 05:48:43;;;;;;;;;;;;;;;;;;6286212;28;19923;-62
2023/08/21 05:51:44;;;;;;;;;;;;;;;;;;6307280;28;19924;-62
2023/08/21 05:54:44;;;;;;;;;;;;;;;;;;6310344;28;19924;-62
2023/08/21 05:57:45;;;;;;;;;;;;;;;;;;6302429;28;19942;-62
2023/08/21 06:00:46;;;;;;;;;;;;;;;;;;6289968;28;20306;-62
2023/08/21 06:03:47;;;;;;;;;;;;;;;;;;6310562;28;19931;-62
2023/08/21 06:06:47;;;;;;;;;;;;;;;;;;6301005;28;19924;-62
2023/08/21 06:09:48;;;;;;;;;;;;;;;;;;6311283;28;19923;-62
2023/08/21 06:12:48;;;;;;;;;;;;;;;;;;6297151;28;20684;-62
2023/08/21 06:15:49;;;;;;;;;;;;;;;;;;6298522;28;20538;-63
2023/08/21 06:18:49;;;;;;;;;;;;;;;;;;6297518;28;19931;-62
2023/08/21 06:21:50;;;;;;;;;;;;;;;;;;6298888;28;19931;-62
2023/08/21 06:24:51;;;;;;;;;;;;;;;;;;6302253;28;19928;-63
2023/08/21 06:27:51;;;;;;;;;;;;;;;;;;6309140;28;20279;-61
2023/08/21 06:30:58;;;;;;;;;;;;;;;;;;6313691;28;19920;-62
2023/08/21 06:33:58;;;;;;;;;;;;;;;;;;6309580;28;19923;-62
2023/08/21 06:36:59;;;;;;;;;;;;;;;;;;6311124;28;20177;-62
2023/08/21 06:39:59;;;;;;;;;;;;;;;;;;6299517;28;19928;-63
2023/08/21 06:43:00;;;;;;;;;;;;;;;;;;6297215;28;19928;-63
2023/08/21 06:46:01;;;;;;;;;;;;;;;;;;6301707;28;19955;-62
2023/08/21 06:49:02;;;;;;;;;;;;;;;;;;6307460;28;20255;-62
2023/08/21 06:52:03;;;;;;;;;;;;;;;;;;6305016;28;19921;-62
2023/08/21 06:55:04;;;;;;;;;;;;;;;;;;6313714;28;19985;-62
2023/08/21 06:58:04;;;;;;;;;;;;;;;;;;6305849;28;19928;-60
2023/08/21 07:01:05;;;;;;;;;;;;;;;;;;6307039;28;20432;-62
2023/08/21 07:04:05;;;;;;;;;;;;;;;;;;6301593;28;19924;-62
2023/08/21 07:07:06;;;;;;;;;;;;;;;;;;6309117;28;19931;-62
2023/08/21 07:10:08;;;;;;;;;;;;;;;;;;6308898;28;19931;-62
2023/08/21 07:13:08;;;;;;;;;;;;;;;;;;6306164;28;19926;-63
2023/08/21 07:16:09;;;;;;;;;;;;;;;;;;6300314;28;19924;-63
2023/08/21 07:19:09;;;;;;;;;;;;;;;;;;6296697;28;19928;-63
2023/08/21 07:22:10;;;;;;;;;;;;;;;;;;6312330;28;19969;-64
2023/08/21 07:25:10;;;;;;;;;;;;;;;;;;6296188;28;19924;-63
2023/08/21 07:28:11;;;;;;;;;;;;;;;;;;6299599;28;19927;-64
2023/08/21 07:31:11;;;;;;;;;;;;;;;;;;6313577;28;20041;-63
2023/08/21 07:34:12;;;;;;;;;;;;;;;;;;6307689;28;20004;-64
2023/08/21 07:37:12;;;;;;;;;;;;;;;;;;6313135;28;20393;-63
2023/08/21 07:40:13;;;;;;;;;;;;;;;;;;6316026;28;20283;-63
2023/08/21 07:43:14;;;;;;;;;;;;;;;;;;6304294;28;19927;-63
2023/08/21 07:46:18;;;;;;;;;;;;;;;;;;6316193;28;19967;-62
2023/08/21 07:49:18;;;;;;;;;;;;;;;;;;6315143;28;19924;-63
2023/08/21 07:52:19;;;;;;;;;;;;;;;;;;6307262;28;20668;-62
2023/08/21 07:55:20;;;;;;;;;;;;;;;;;;6313071;28;19928;-62
2023/08/21 07:58:20;;;;;;;;;;;;;;;;;;6305095;28;19924;-62
2023/08/21 08:01:21;;;;;;;;;;;;;;;;;;6310746;28;19924;-62
2023/08/21 08:04:21;;;;;;;;;;;;;;;;;;6309795;28;19924;-62
2023/08/21 08:07:22;;;;;;;;;;;;;;;;;;6311994;28;20645;-63
2023/08/21 08:10:23;;;;;;;;;;;;;;;;;;6314513;28;19920;-63
2023/08/21 08:13:24;;;;;;;;;;;;;;;;;;6309509;28;19920;-63
2023/08/21 08:16:24;;;;;;;;;;;;;;;;;;6310913;28;20385;-62
2023/08/21 08:19:25;;;;;;;;;;;;;;;;;;6299530;28;19920;-60
2023/08/21 08:22:25;;;;;;;;;;;;;;;;;;6309508;28;19931;-62
2023/08/21 08:25:26;;;;;;;;;;;;;;;;;;6315286;28;19919;-64
2023/08/21 08:28:26;;;;;;;;;;;;;;;;;;6307206;28;19920;-61
2023/08/21 08:31:27;;;;;;;;;;;;;;;;;;6312041;28;19948;-62
2023/08/21 08:34:28;;;;;;;;;;;;;;;;;;6317233;28;19927;-63
2023/08/21 08:37:28;;;;;;;;;;;;;;;;;;6302450;28;20283;-63
2023/08/21 08:40:29;;;;;;;;;;;;;;;;;;6308622;28;20283;-63
2023/08/21 08:43:30;;;;;;;;;;;;;;;;;;6309214;28;19931;-63
2023/08/21 08:46:31;;;;;;;;;;;;;;;;;;6296709;28;20426;-63
2023/08/21 08:49:31;;;;;;;;;;;;;;;;;;6301498;28;19931;-74
2023/08/21 08:52:35;;;;;;;;;;;;;;;;;;6294559;28;20343;-63
2023/08/21 08:55:35;;;;;;;;;;;;;;;;;;6296736;28;19927;-63
2023/08/21 08:58:36;;;;;;;;;;;;;;;;;;6297881;28;20054;-61
2023/08/21 09:01:36;;;;;;;;;;;;;;;;;;6294997;28;19993;-63
2023/08/21 09:04:37;;;;;;;;;;;;;;;;;;6312084;28;19970;-63
2023/08/21 09:07:37;;;;;;;;;;;;;;;;;;6303152;28;19981;-63
2023/08/21 09:10:39;;;;;;;;;;;;;;;;;;6314879;28;20007;-63
2023/08/21 09:13:39;;;;;;;;;;;;;;;;;;6313378;28;20363;-63
2023/08/21 09:16:58;;;;;;;;;;;;;;;;;;6310829;28;19935;-63
2023/08/21 09:20:05;;;;;;;;;;;;;;;;;;6309328;28;19925;-63
2023/08/21 09:23:06;;;;;;;;;;;;;;;;;;6292991;28;19921;-63
2023/08/21 09:26:06;;;;;;;;;;;;;;;;;;6296544;28;20784;-63
2023/08/21 09:29:08;;;;;;;;;;;;;;;;;;6294729;28;19924;-63
2023/08/21 09:32:08;;;;;;;;;;;;;;;;;;6293334;28;19924;-63
2023/08/21 09:35:13;;;;;;;;;;;;;;;;;;6301510;28;19927;-63
2023/08/21 09:38:18;;;;;;;;;;;;;;;;;;6314758;28;19927;-63
2023/08/21 09:41:20;;;;;;;;;;;;;;;;;;6322949;28;19924;-63
2023/08/21 09:44:20;;;;;;;;;;;;;;;;;;6303719;28;20349;-63
2023/08/21 09:47:23;;;;;;;;;;;;;;;;;;6310973;28;19920;-63
2023/08/21 09:50:24;;;;;;;;;;;;;;;;;;6318779;28;19959;-62
2023/08/21 09:53:25;;;;;;;;;;;;;;;;;;6301094;28;19955;-61
2023/08/21 09:56:25;;;;;;;;;;;;;;;;;;6298903;28;19931;-62
2023/08/21 09:59:26;;;;;;;;;;;;;;;;;;6310169;28;19924;-61
2023/08/21 10:02:26;;;;;;;;;;;;;;;;;;6315462;28;19928;-62
2023/08/21 10:05:28;;;;;;;;;;;;;;;;;;6315172;28;19919;-62
2023/08/21 10:08:28;;;;;;;;;;;;;;;;;;6310953;28;19931;-62
2023/08/21 10:11:29;;;;;;;;;;;;;;;;;;6316553;28;19931;-64
2023/08/21 10:14:30;;;;;;;;;;;;;;;;;;6311255;28;19996;-62
2023/08/21 10:17:31;;;;;;;;;;;;;;;;;;6298448;28;19928;-62
2023/08/21 10:20:31;;;;;;;;;;;;;;;;;;6301953;28;20353;-62
2023/08/21 10:23:32;;;;;;;;;;;;;;;;;;6307072;28;20396;-60
2023/08/21 10:26:37;;;;;;;;;;;;;;;;;;6313342;28;19927;-60
2023/08/21 10:29:38;;;;;;;;;;;;;;;;;;6293295;28;19926;-62
2023/08/21 10:32:44;;;;;;;;;;;;;;;;;;6302613;28;20318;-61
2023/08/21 10:35:44;;;;;;;;;;;;;;;;;;6294789;28;19924;-63
2023/08/21 10:39:00;;;;;;;;;;;;;;;;;;6294981;28;19925;-63
2023/08/21 10:42:09;;;;;;;;;;;;;;;;;;6292256;28;19974;-64
2023/08/21 10:45:10;;;;;;;;;;;;;;;;;;6311762;28;19963;-63
2023/08/21 10:48:11;;;;;;;;;;;;;;;;;;6308803;28;20490;-60
2023/08/21 10:51:13;;;;;;;;;;;;;;;;;;6313902;28;19924;-63
2023/08/21 10:54:14;;;;;;;;;;;;;;;;;;6308426;28;20347;-62
2023/08/21 10:57:14;;;;;;;;;;;;;;;;;;6312142;28;19923;-62
2023/08/21 11:00:20;;;;;;;;;;;;;;;;;;6300750;28;19920;-62
2023/08/21 11:03:20;;;;;;;;;;;;;;;;;;6306256;28;19927;-63
2023/08/21 11:06:22;;;;;;;;;;;;;;;;;;6303103;28;19920;-62
2023/08/21 11:09:22;;;;;;;;;;;;;;;;;;6297424;28;20030;-62
2023/08/21 11:12:23;;;;;;;;;;;;;;;;;;6296272;28;19928;-65
2023/08/21 11:15:25;;;;;;;;;;;;;;;;;;6299339;28;19927;-62
2023/08/21 11:18:31;;;;;;;;;;;;;;;;;;6302161;28;19928;-62
2023/08/21 11:21:31;;;;;;;;;;;;;;;;;;6295723;28;19924;-62
2023/08/21 11:24:46;;;;;;;;;;;;;;;;;;6297249;28;19973;-63
2023/08/21 11:27:46;;;;;;;;;;;;;;;;;;6295894;28;19927;-62
2023/08/21 11:30:47;;;;;;;;;;;;;;;;;;6305212;28;19920;-62
2023/08/21 11:33:50;;;;;;;;;;;;;;;;;;6305853;28;20539;-62
2023/08/21 11:36:52;;;;;;;;;;;;;;;;;;6295928;28;19969;-62
2023/08/21 11:39:56;;;;;;;;;;;;;;;;;;6297429;28;19939;-62
2023/08/21 11:43:01;;;;;;;;;;;;;;;;;;6298699;28;19953;-62
2023/08/21 11:46:02;;;;;;;;;;;;;;;;;;6300305;28;20009;-62
2023/08/21 11:49:04;;;;;;;;;;;;;;;;;;6290255;28;19924;-62
2023/08/21 11:52:04;;;;;;;;;;;;;;;;;;6294697;28;19924;-62
2023/08/21 11:55:07;;;;;;;;;;;;;;;;;;6294876;28;19938;-62
2023/08/21 11:58:07;;;;;;;;;;;;;;;;;;6293585;28;22583;-62
2023/08/21 12:01:09;;;;;;;;;;;;;;;;;;6307295;28;19923;-63
2023/08/21 12:04:16;;;;;;;;;;;;;;;;;;6297014;28;19924;-62
2023/08/21 12:07:17;;;;;;;;;;;;;;;;;;6298962;28;19924;-62
2023/08/21 12:11:04;;;;;;;22.33;16.38;;;;;;;;;;6293681;28;20417;-62
2023/08/21 12:14:05;;;;;;;18.58;16.52;;;;;;;;;;6282819;28;20049;-62
2023/08/21 12:17:06;;;;;;;21.02;16.77;;;;;;;;;;6275436;28;20425;-61
2023/08/21 12:20:10;;;;;;;21.63;17.70;;;;;;;;;;6275852;28;20733;-62
2023/08/21 12:23:11;;;;;;;20.35;17.23;;;;;;;;;;6276869;28;20151;-62
2023/08/21 12:26:11;;;;;;;20.98;17.48;;;;;;;;;;6284274;28;20114;-62
2023/08/21 12:29:12;;;;;;;19.87;16.93;;;;;;;;;;6280980;28;20063;-62
2023/08/21 12:32:12;;;;;;;20.23;15.98;;;;;;;;;;6284105;28;20411;-61
2023/08/21 12:35:13;;;;;;;21.90;15.93;;;;;;;;;;6282417;28;20056;-61
2023/08/21 12:38:14;;;;;;;20.77;15.93;;;;;;;;;;6279327;28;20045;-62
2023/08/21 12:41:14;;;;;;;20.80;17.13;;;;;;;;;;6282383;28;20044;-62
2023/08/21 12:44:15;;;;;;;19.42;16.90;;;;;;;;;;6278682;28;20064;-63
2023/08/21 12:47:15;;;;;;;19.80;16.63;;;;;;;;;;6278713;28;20543;-61
2023/08/21 12:50:16;;;;;;;19.67;16.42;;;;;;;;;;6277206;28;20326;-60
2023/08/21 12:53:17;;;;;;;18.67;15.47;;;;;;;;;;6278965;28;20048;-62
2023/08/21 12:56:18;;;;;;;20.17;16.52;;;;;;;;;;6286640;28;20109;-62
2023/08/21 12:59:18;;;;;;;23.08;16.20;;;;;;;;;;6282846;28;20430;-61
2023/08/21 13:02:19;;;;;;;19.13;15.20;;;;;;;;;;6278831;28;20445;-61
2023/08/21 13:05:20;;;;;;;18.20;14.73;;;;;;;;;;6278868;28;20040;-62
2023/08/21 13:08:21;;;;;;;17.02;14.48;;;;;;;;;;6279958;28;20799;-62
2023/08/21 13:11:21;;;;;;;17.50;14.27;;;;;;;;;;6283117;28;20073;-62
2023/08/21 13:14:22;;;;;;;19.67;14.23;;;;;;;;;;6280092;28;20041;-62
2023/08/21 13:17:22;;;;;;;15.67;13.67;;;;;;;;;;6279068;28;20048;-62
2023/08/21 13:20:23;;;;;;;16.98;14.07;;;;;;;;;;6273636;28;20341;-62
2023/08/21 13:23:24;;;;;;;15.23;12.90;;;;;;;;;;6254936;28;20048;-62
2023/08/21 13:26:25;;;;;;;14.43;12.93;;;;;;;;;;6252516;28;20057;-62
2023/08/21 13:29:25;;;;;;;13.95;12.38;;;;;;;;;;6249129;28;20480;-61
2023/08/21 13:32:26;;;;;;;15.07;12.48;;;;;;;;;;6251045;28;20057;-61
2023/08/21 13:35:27;;;;;;;16.63;13.57;;;;;;;;;;6249978;28;20049;-61
2023/08/21 13:38:28;;;;;;;15.95;12.95;;;;;;;;;;6249691;28;20306;-62
2023/08/21 13:41:28;;;;;;;16.85;13.30;;;;;;;;;;6251120;28;20138;-62
2023/08/21 13:44:29;;;;;;;15.68;13.23;;;;;;;;;;6249601;28;20063;-62
2023/08/21 13:47:29;;;;;;;14.17;12.67;;;;;;;;;;6254450;28;20127;-62
2023/08/21 13:50:30;;;;;;;16.23;12.82;;;;;;;;;;6258462;28;20396;-61
2023/08/21 13:53:31;;;;;;;14.07;12.65;;;;;;;;;;6254480;28;20044;-59
2023/08/21 13:56:31;;;;;;;15.35;13.05;;;;;;;;;;6257522;28;20194;-62
2023/08/21 13:59:32;;;;;;;;;;;;;;;;;;6257037;28;20064;-62
2023/08/21 14:02:36;;;;;;;16.90;13.38;;;;;;;;;;6256842;28;19944;-62
2023/08/21 14:05:36;;;;;;;15.52;13.52;;;;;;;;;;6254098;28;20127;-62
2023/08/21 14:08:37;;;;;;;;;;;;;;;;;;6256603;28;20621;-62
2023/08/21 14:11:38;;;;;;;16.67;13.77;;;;;;;;;;6256153;28;19925;-62
2023/08/21 14:14:38;;;;;;;14.90;13.40;;;;;;;;;;6253309;28;20047;-63
2023/08/21 14:17:39;;;;;;;15.32;13.40;;;;;;;;;;6255320;28;20057;-67
2023/08/21 14:20:40;;;;;;;;;;;;;;;;;;6257684;28;20045;-61
2023/08/21 14:23:40;;;;;;;16.43;13.33;;;;;;;;;;6258672;28;19933;-63
2023/08/21 14:26:41;;;;;;;14.70;13.07;;;;;;;;;;6257176;28;20056;-64
2023/08/21 14:29:43;;;;;;;;;;;;;;;;;;6260152;28;20051;-61
2023/08/21 14:32:43;;;;;;;14.70;12.98;;;;;;;;;;6259570;28;21116;-62
2023/08/21 14:35:44;;;;;;;18.17;13.57;;;;;;;;;;6258840;28;20057;-61
2023/08/21 14:38:44;;;;;;;;;;;;;;;;;;6256431;28;20088;-63
2023/08/21 14:41:45;;;;;;;16.77;13.43;;;;;;;;;;6258178;28;19932;-61
2023/08/21 14:44:46;;;;;;;;;;;;;;;;;;6255833;28;20049;-62
2023/08/21 14:47:46;;;;;;;20.03;14.63;;;;;;;;;;6255688;28;19928;-64
2023/08/21 14:50:47;;;;;;;;;;;;;;;;;;6255849;28;20162;-61
2023/08/21 14:53:48;;;;;;;18.63;14.83;;;;;;;;;;6256240;28;20333;-61
2023/08/21 14:56:48;;;;;;;;;;;;;;;;;;6256245;28;20043;-61
2023/08/21 14:59:49;;;;;;;16.03;14.33;;;;;;;;;;6258401;28;19924;-61
2023/08/21 15:02:50;;;;;;;18.92;14.82;;;;;;;;;;6258150;28;20123;-61
2023/08/21 15:05:50;;;;;;;17.92;15.00;;;;;;;;;;6258825;28;20040;-61
2023/08/21 15:08:51;;;;;;;;;;;;;;;;;;6256469;28;20037;-61
2023/08/21 15:11:51;;;;;;;16.23;14.37;;;;;;;;;;6255634;28;19928;-62
2023/08/21 15:14:52;;;;;;;;;;;;;;;;;;6252682;28;20052;-61
2023/08/21 15:17:52;;;;;;;20.57;15.60;;;;;;;;;;6255487;28;20311;-61
2023/08/21 15:20:53;;;;;;;;;;;;;;;;;;6256703;28;20976;-61
2023/08/21 15:23:54;;;;;;;19.63;15.43;;;;;;;;;;6255781;28;20450;-61
2023/08/21 15:26:54;;;;;;;;;;;;;;;;;;6257032;28;20435;-62
2023/08/21 15:29:55;;;;;;;18.03;15.83;;;;;;;;;;6253862;28;20268;-61
2023/08/21 15:32:55;;;;;;;21.27;15.25;;;;;;;;;;6255330;28;20291;-62
2023/08/21 15:35:56;;;;;;;18.47;14.73;;;;;;;;;;6253925;28;20052;-62
2023/08/21 15:38:57;;;;;;;16.70;14.90;;;;;;;;;;6254184;28;20313;-61
2023/08/21 15:41:57;;;;;;;;;;;;;;;;;;6254170;28;20053;-62
2023/08/21 15:44:58;;;;;;;21.25;14.40;;;;;;;;;;6252307;28;19924;-63
2023/08/21 15:47:58;;;;;;;18.30;14.65;;;;;;;;;;6256062;28;20238;-63
2023/08/21 15:50:59;;;;;;;;;;;;;;;;;;6255638;28;20049;-62
2023/08/21 15:53:59;;;;;;;16.27;14.57;;;;;;;;;;6254792;28;19932;-62
2023/08/21 15:57:01;;;;;;;19.77;14.18;;;;;;;;;;6255204;28;20076;-63
2023/08/21 16:00:02;;;;;;;;;;;;;;;;;;6255904;28;20064;-63
2023/08/21 16:03:04;;;;;;;16.83;14.77;;;;;;;;;;6256269;28;20027;-63
2023/08/21 16:06:04;;;;;;;;;;;;;;;;;;6255312;28;20041;-63
2023/08/21 16:09:05;;;;;;;17.38;14.75;;;;;;;;;;6255741;28;19929;-63
2023/08/21 16:12:06;;;;;;;17.73;14.60;;;;;;;;;;6255361;28;20059;-63
2023/08/21 16:15:07;;;;;;;19.60;14.93;;;;;;;;;;6254201;28;20055;-63
2023/08/21 16:18:09;;;;;;;16.35;14.57;;;;;;;;;;6255630;28;20053;-63
2023/08/21 16:21:10;;;;;;;16.98;14.95;;;;;;;;;;6256600;28;20530;-63
2023/08/21 16:24:10;;;;;;;18.70;15.43;;;;;;;;;;6255219;28;20053;-62
2023/08/21 16:27:11;;;;;;;18.88;15.40;;;;;;;;;;6255754;28;20045;-61
2023/08/21 16:30:12;;;;;;;19.02;14.63;;;;;;;;;;6256103;28;20044;-62
2023/08/21 16:33:12;;;;;;;;;;;;;;;;;;6255090;28;20480;-62
2023/08/21 16:36:13;;;;;;;19.17;14.73;;;;;;;;;;6255618;28;19975;-62
2023/08/21 16:39:14;;;;;;;17.33;14.23;;;;;;;;;;6255360;28;20057;-63
2023/08/21 16:42:15;;;;;;;;;;;;;;;;;;6253013;28;20049;-62
2023/08/21 16:45:16;;;;;;;21.77;15.57;;;;;;;;;;6251266;28;19935;-62
2023/08/21 16:48:17;;;;;;;19.65;15.20;;;;;;;;;;6249811;28;20056;-62
2023/08/21 16:51:18;;;;;;;18.35;15.88;;;;;;;;;;6253204;28;20063;-62
2023/08/21 16:54:19;;;;;;;17.73;15.80;;;;;;;;;;6252040;28;20052;-61
2023/08/21 16:57:19;;;;;;;21.92;16.85;;;;;;;;;;6255639;28;20045;-61
2023/08/21 17:00:20;;;;;;;21.33;17.03;;;;;;;;;;6257483;28;20079;-62
2023/08/21 17:03:21;;;;;;;18.30;16.10;;;;;;;;;;6255447;28;20069;-62
2023/08/21 17:06:21;;;;;;;17.55;15.68;;;;;;;;;;6257091;28;20040;-62
2023/08/21 17:09:23;;;;;;;19.17;15.98;;;;;;;;;;6254744;28;20084;-65
2023/08/21 17:12:23;;;;;;;21.10;16.10;;;;;;;;;;6253904;28;20164;-63
2023/08/21 17:15:24;;;;;;;17.90;15.88;;;;;;;;;;6255863;28;20720;-61
2023/08/21 17:18:25;;;;;;;17.30;15.13;;;;;;;;;;6255766;28;20056;-62
2023/08/21 17:21:26;;;;;;;18.25;14.68;;;;;;;;;;6257481;28;20052;-63
2023/08/21 17:24:28;;;;;;;18.35;14.15;;;;;;;;;;6253460;28;20818;-63
2023/08/21 17:27:28;;;;;;;17.60;13.88;;;;;;;;;;6256673;28;20064;-62
2023/08/21 17:30:31;;;;;;;17.33;14.33;;;;;;;;;;6257633;28;20480;-62
2023/08/21 17:33:32;;;;;;;19.08;13.95;;;;;;;;;;6254218;28;20238;-62
2023/08/21 17:36:32;;;;;;;18.37;14.43;;;;;;;;;;6257778;28;20056;-63
2023/08/21 17:39:34;;;;;;;15.43;13.50;;;;;;;;;;6257587;28;20087;-62
2023/08/21 17:42:34;;;;;;;17.25;14.05;;;;;;;;;;6256743;28;20053;-63
2023/08/21 17:45:35;;;;;;;16.40;13.77;;;;;;;;;;6255646;28;20048;-63
2023/08/21 17:48:36;;;;;;;18.93;14.27;;;;;;;;;;6256214;28;20051;-62
2023/08/21 17:51:37;;;;;;;17.83;14.35;;;;;;;;;;6254856;28;20053;-61
2023/08/21 17:54:37;;;;;;;21.53;14.90;;;;;;;;;;6253268;28;20087;-63
2023/08/21 17:57:40;;;;;;;15.75;12.80;;;;;;;;;;6255741;28;20053;-63
2023/08/21 18:00:41;;;;;;;18.95;14.23;;;;;;;;;;6254951;28;20068;-61
2023/08/21 18:03:42;;;;;;;17.10;13.55;;;;;;;;;;6252313;28;20076;-62
2023/08/21 18:06:42;;;;;;;16.17;14.48;;;;;;;;;;6254517;28;20053;-62
2023/08/21 18:09:43;;;;;;;19.70;14.43;;;;;;;;;;6254337;28;20251;-63
2023/08/21 18:12:43;;;;;;;15.20;13.50;;;;;;;;;;6256264;28;20048;-63
2023/08/21 18:15:48;;;;;;;15.75;13.13;;;;;;;;;;6254481;28;20053;-63
2023/08/21 18:18:49;;;;;;;16.95;13.13;;;;;;;;;;6254262;28;20566;-63
2023/08/21 18:21:49;;;;;;;15.93;13.82;;;;;;;;;;6255684;28;20148;-64
2023/08/21 18:24:50;;;;;;;15.97;12.60;;;;;;;;;;6254495;28;20049;-63
2023/08/21 18:27:50;;;;;;;16.30;12.73;;;;;;;;;;6255156;28;20570;-62
2023/08/21 18:30:55;;;;;;;15.97;12.90;;;;;;;;;;6254535;28;20310;-63
2023/08/21 18:33:56;;;;;;;13.98;12.43;;;;;;;;;;6253001;28;20052;-62
2023/08/21 18:36:59;;;;;;;17.03;12.87;;;;;;;;;;6254767;28;20060;-62
2023/08/21 18:40:00;;;;;;;16.50;13.10;;;;;;;;;;6254607;28;20063;-62
2023/08/21 18:43:01;;;;;;;17.73;13.80;;;;;;;;;;6254927;28;20480;-61
2023/08/21 18:46:02;;;;;;;19.02;13.57;;;;;;;;;;6250842;28;20423;-61
2023/08/21 18:49:02;;;;;;;16.60;13.77;;;;;;;;;;6248414;28;20040;-63
2023/08/21 18:52:03;;;;;;;16.58;13.40;;;;;;;;;;6250506;28;20079;-62
2023/08/21 18:55:05;;;;;;;15.95;13.70;;;;;;;;;;6249560;28;20492;-63
2023/08/21 18:58:06;;;;;;;20.45;15.13;;;;;;;;;;6253196;28;20102;-62
2023/08/21 19:01:07;;;;;;;18.00;14.20;;;;;;;;;;6247741;28;20052;-62
2023/08/21 19:04:07;;;;;;;18.77;15.52;;;;;;;;;;6245378;28;20055;-61
2023/08/21 19:07:08;;;;;;;21.13;14.87;;;;;;;;;;6250192;28;20052;-63
2023/08/21 19:10:09;;;;;;;18.38;14.95;;;;;;;;;;6242988;28;20144;-62
2023/08/21 19:13:10;;;;;;;16.30;13.45;;;;;;;;;;6243428;28;20101;-62
2023/08/21 19:16:11;;;;;;;18.20;14.73;;;;;;;;;;6246572;28;20094;-62
2023/08/21 19:19:12;;;;;;;19.50;14.43;;;;;;;;;;6243142;28;20083;-62
2023/08/21 19:22:12;;;;;;;19.30;15.10;;;;;;;;;;6242862;28;20045;-62
2023/08/21 19:25:13;;;;;;;18.50;14.70;;;;;;;;;;6242857;28;20094;-62
2023/08/21 19:28:15;;;;;;;18.13;14.68;;;;;;;;;;6245163;28;20064;-62